| time (UTC) | temp F | wind direction | speed knots | gust knots | rain 1hr in | rain 24hr in | rain mn in | humidity % | barometer mb |
| 20260509173717 | 62 | 142 | 2.6 | 4.3 | 0.00 | 0.00 | 0.00 | 64 | 1005.2 |
| 20260509173213 | 61 | 212 | 1.7 | 2.6 | 0.00 | 0.00 | 0.00 | 65 | 1005.3 |
| 20260509172709 | 60 | 141 | 1.7 | 2.6 | 0.00 | 0.00 | 0.00 | 70 | 1005.5 |
| 20260509172206 | 60 | 204 | 3.5 | 5.2 | 0.00 | 0.00 | 0.00 | 66 | 1005.6 |
| 20260509171701 | 59 | 212 | 1.7 | 2.6 | 0.00 | 0.00 | 0.00 | 70 | 1005.6 |
| 20260509171157 | 61 | 156 | 1.7 | 2.6 | 0.00 | 0.00 | 0.00 | 71 | 1005.3 |
| 20260509170654 | 61 | 138 | 2.6 | 2.6 | 0.00 | 0.00 | 0.00 | 65 | 1005.3 |
| 20260509170150 | 61 | 203 | 2.6 | 2.6 | 0.00 | 0.00 | 0.00 | 66 | 1005.5 |
| 20260509165649 | 59 | 233 | 0.0 | 0.9 | 0.00 | 0.00 | 0.00 | 70 | 1005.4 |
| 20260509165144 | 60 | 115 | 0.9 | 1.7 | 0.00 | 0.00 | 0.00 | 73 | 1005.5 |
| 20260509164641 | 58 | 196 | 0.9 | 0.9 | 0.00 | 0.00 | 0.00 | 73 | 1005.5 |
| 20260509164136 | 59 | 146 | 1.7 | 1.7 | 0.00 | 0.00 | 0.00 | 73 | 1005.7 |
| 20260509163634 | 60 | 147 | 0.9 | 1.7 | 0.00 | 0.00 | 0.00 | 72 | 1005.7 |
| 20260509163130 | 60 | 238 | 4.3 | 5.2 | 0.00 | 0.00 | 0.00 | 67 | 1005.7 |
| 20260509162627 | 58 | 230 | 0.9 | 1.7 | 0.00 | 0.00 | 0.00 | 74 | 1005.9 |
| 20260509162123 | 58 | 229 | 1.7 | 1.7 | 0.00 | 0.00 | 0.00 | 72 | 1005.9 |
| 20260509161619 | 58 | 267 | 0.0 | 0.9 | 0.00 | 0.00 | 0.00 | 72 | 1005.9 |
| 20260509161115 | 59 | 250 | 1.7 | 2.6 | 0.00 | 0.00 | 0.00 | 71 | 1006.1 |
| 20260509160611 | 57 | 201 | 0.9 | 1.7 | 0.00 | 0.00 | 0.00 | 73 | 1006.0 |
| 20260509160106 | 57 | 295 | 1.7 | 1.7 | 0.00 | 0.00 | 0.00 | 74 | 1006.3 |
| 20260509155603 | 57 | 311 | 2.6 | 2.6 | 0.00 | 0.00 | 0.00 | 75 | 1006.3 |
| 20260509155059 | 57 | 269 | 3.5 | 5.2 | 0.00 | 0.00 | 0.00 | 76 | 1006.2 |
| 20260509154555 | 57 | 259 | 2.6 | 2.6 | 0.00 | 0.00 | 0.00 | 77 | 1006.3 |
| 20260509154052 | 57 | 215 | 2.6 | 4.3 | 0.00 | 0.00 | 0.00 | 76 | 1006.3 |
| 20260509153549 | 57 | 251 | 2.6 | 2.6 | 0.00 | 0.00 | 0.00 | 77 | 1006.2 |
| 20260509153040 | 56 | 217 | 2.6 | 4.3 | 0.00 | 0.00 | 0.00 | 78 | 1006.3 |
| 20260509152536 | 57 | 224 | 3.5 | 5.2 | 0.00 | 0.00 | 0.00 | 76 | 1006.3 |
| 20260509152033 | 56 | 223 | 3.5 | 4.3 | 0.00 | 0.00 | 0.00 | 77 | 1006.4 |
| 20260509151529 | 55 | 295 | 1.7 | 1.7 | 0.00 | 0.00 | 0.00 | 78 | 1006.3 |
| 20260509151027 | 55 | 209 | 2.6 | 4.3 | 0.00 | 0.00 | 0.00 | 78 | 1006.5 |
| 20260509150525 | 55 | 200 | 0.9 | 1.7 | 0.00 | 0.00 | 0.00 | 80 | 1006.6 |
| 20260509150023 | 55 | 140 | 1.7 | 1.7 | 0.00 | 0.00 | 0.00 | 83 | 1006.4 |
| 20260509145518 | 55 | 177 | 0.9 | 0.9 | 0.00 | 0.00 | 0.00 | 81 | 1006.3 |
| 20260509145013 | 55 | 205 | 3.5 | 5.2 | 0.00 | 0.00 | 0.00 | 82 | 1006.2 |
| 20260509144511 | 55 | 215 | 1.7 | 1.7 | 0.00 | 0.00 | 0.00 | 82 | 1006.5 |
| 20260509144008 | 55 | 215 | 3.5 | 6.1 | 0.00 | 0.00 | 0.00 | 80 | 1006.5 |
| 20260509143505 | 55 | 220 | 2.6 | 2.6 | 0.00 | 0.00 | 0.00 | 82 | 1006.8 |
| 20260509143002 | 56 | 219 | 1.7 | 1.7 | 0.00 | 0.00 | 0.00 | 81 | 1006.6 |
| 20260509142458 | 55 | 241 | 2.6 | 4.3 | 0.00 | 0.00 | 0.00 | 82 | 1006.4 |
| 20260509141953 | 55 | 236 | 1.7 | 1.7 | 0.00 | 0.00 | 0.00 | 82 | 1006.3 |
| 20260509141450 | 55 | 271 | 2.6 | 2.6 | 0.00 | 0.00 | 0.00 | 84 | 1006.5 |
| 20260509140947 | 54 | 260 | 0.0 | 0.0 | 0.00 | 0.00 | 0.00 | 84 | 1006.5 |
| 20260509140443 | 53 | 224 | 2.6 | 2.6 | 0.00 | 0.00 | 0.00 | 85 | 1006.5 |
| 20260509135942 | 54 | 236 | 0.9 | 1.7 | 0.00 | 0.00 | 0.00 | 85 | 1006.5 |
| 20260509135439 | 54 | 192 | 0.0 | 0.9 | 0.00 | 0.00 | 0.00 | 86 | 1006.5 |
| 20260509134936 | 53 | 227 | 4.3 | 6.1 | 0.00 | 0.00 | 0.00 | 85 | 1006.6 |
| 20260509134433 | 53 | 135 | 2.6 | 2.6 | 0.00 | 0.00 | 0.00 | 88 | 1006.9 |
| 20260509133931 | 53 | 152 | 1.7 | 1.7 | 0.00 | 0.00 | 0.00 | 88 | 1006.6 |
| 20260509133427 | 52 | 155 | 1.7 | 1.7 | 0.00 | 0.00 | 0.00 | 87 | 1006.5 |
| 20260509132926 | 52 | 151 | 1.7 | 1.7 | 0.00 | 0.00 | 0.00 | 88 | 1007.2 |
| 20260509132423 | 52 | 238 | 1.7 | 2.6 | 0.00 | 0.00 | 0.00 | 88 | 1007.0 |
| 20260509131920 | 52 | 159 | 2.6 | 4.3 | 0.00 | 0.00 | 0.00 | 88 | 1007.2 |
| 20260509131417 | 51 | 225 | 0.9 | 0.9 | 0.00 | 0.00 | 0.00 | 88 | 1007.1 |
| 20260509130914 | 51 | 148 | 1.7 | 1.7 | 0.00 | 0.00 | 0.00 | 89 | 1007.2 |
| 20260509130409 | 51 | 205 | 3.5 | 5.2 | 0.00 | 0.00 | 0.00 | 88 | 1007.2 |
| 20260509125906 | 51 | 220 | 0.9 | 0.9 | 0.00 | 0.00 | 0.00 | 89 | 1007.3 |
| 20260509125403 | 51 | 162 | 0.9 | 0.9 | 0.00 | 0.00 | 0.00 | 90 | 1007.2 |
| 20260509124859 | 50 | 227 | 0.0 | 0.9 | 0.00 | 0.00 | 0.00 | 91 | 1007.3 |
| 20260509124356 | 50 | 185 | 0.9 | 0.9 | 0.00 | 0.00 | 0.00 | 90 | 1007.2 |
| 20260509123854 | 50 | 195 | 0.9 | 0.9 | 0.00 | 0.00 | 0.00 | 90 | 1007.3 |
| 20260509123351 | 50 | 202 | 0.9 | 1.7 | 0.00 | 0.00 | 0.00 | 90 | 1007.4 |
| 20260509122847 | 50 | 242 | 0.9 | 1.7 | 0.00 | 0.00 | 0.00 | 90 | 1007.3 |
| 20260509122344 | 50 | 223 | 2.6 | 4.3 | 0.00 | 0.00 | 0.00 | 90 | 1007.3 |
| 20260509121840 | 49 | 212 | 0.9 | 0.9 | 0.00 | 0.00 | 0.00 | 91 | 1007.6 |
| 20260509121338 | 49 | 240 | 0.0 | 0.9 | 0.00 | 0.00 | 0.00 | 91 | 1007.3 |
| 20260509120836 | 49 | 227 | 0.9 | 0.9 | 0.00 | 0.00 | 0.00 | 91 | 1007.3 |
| 20260509120333 | 49 | 179 | 0.9 | 0.9 | 0.00 | 0.00 | 0.00 | 91 | 1007.2 |
| 20260509115831 | 49 | 206 | 0.9 | 1.7 | 0.00 | 0.00 | 0.00 | 91 | 1007.3 |
| 20260509115328 | 49 | 219 | 0.9 | 0.9 | 0.00 | 0.00 | 0.00 | 91 | 1007.2 |
| 20260509114826 | 48 | 227 | 0.9 | 1.7 | 0.00 | 0.00 | 0.00 | 91 | 1007.0 |
| 20260509114324 | 48 | 246 | 2.6 | 4.3 | 0.00 | 0.00 | 0.00 | 92 | 1007.3 |
| 20260509113823 | 47 | 243 | 0.9 | 1.7 | 0.00 | 0.00 | 0.00 | 92 | 1007.2 |
| 20260509113320 | 47 | 222 | 0.9 | 1.7 | 0.00 | 0.00 | 0.00 | 92 | 1007.3 |
| 20260509112817 | 47 | 216 | 0.9 | 1.7 | 0.00 | 0.00 | 0.00 | 92 | 1007.3 |
| 20260509112314 | 46 | 218 | 0.9 | 1.7 | 0.00 | 0.00 | 0.00 | 92 | 1007.2 |
| 20260509111811 | 46 | 212 | 1.7 | 2.6 | 0.00 | 0.00 | 0.00 | 91 | 1007.2 |
| 20260509111308 | 46 | 231 | 0.9 | 0.9 | 0.00 | 0.00 | 0.00 | 91 | 1007.3 |
| 20260509110805 | 46 | 224 | 2.6 | 4.3 | 0.00 | 0.00 | 0.00 | 91 | 1007.4 |
| 20260509110301 | 46 | 235 | 3.5 | 6.1 | 0.00 | 0.00 | 0.00 | 91 | 1007.3 |
| 20260509105800 | 46 | 212 | 0.9 | 1.7 | 0.00 | 0.00 | 0.00 | 90 | 1007.3 |
| 20260509105257 | 45 | 253 | 0.0 | 0.9 | 0.00 | 0.00 | 0.00 | 90 | 1007.5 |
| 20260509104754 | 45 | 225 | 1.7 | 1.7 | 0.00 | 0.00 | 0.00 | 89 | 1007.4 |
| 20260509104250 | 45 | 240 | 1.7 | 1.7 | 0.00 | 0.00 | 0.00 | 89 | 1007.4 |
| 20260509103749 | 45 | 241 | 0.0 | 0.9 | 0.00 | 0.00 | 0.00 | 89 | 1007.4 |
| 20260509103246 | 45 | 216 | 0.9 | 1.7 | 0.00 | 0.00 | 0.00 | 89 | 1007.4 |
| 20260509102744 | 45 | 234 | 0.9 | 1.7 | 0.00 | 0.00 | 0.00 | 89 | 1007.7 |
| 20260509102241 | 45 | 234 | 0.0 | 0.0 | 0.00 | 0.00 | 0.00 | 88 | 1007.3 |
| 20260509101737 | 45 | 217 | 0.9 | 0.9 | 0.00 | 0.00 | 0.00 | 87 | 1007.6 |
| 20260509101233 | 45 | 222 | 0.9 | 0.9 | 0.00 | 0.00 | 0.00 | 87 | 1007.4 |
| 20260509100731 | 45 | 227 | 0.9 | 1.7 | 0.00 | 0.00 | 0.00 | 86 | 1007.5 |
| 20260509100228 | 45 | 216 | 0.9 | 1.7 | 0.00 | 0.00 | 0.00 | 86 | 1007.1 |
| 20260509095724 | 45 | 208 | 1.7 | 1.7 | 0.00 | 0.00 | 0.00 | 86 | 1007.2 |
| 20260509095222 | 45 | 227 | 0.9 | 0.9 | 0.00 | 0.00 | 0.00 | 86 | 1007.4 |
| 20260509094719 | 45 | 204 | 3.5 | 4.3 | 0.00 | 0.00 | 0.00 | 85 | 1007.3 |
| 20260509094215 | 45 | 222 | 2.6 | 2.6 | 0.00 | 0.00 | 0.00 | 85 | 1007.3 |
| 20260509093714 | 45 | 220 | 2.6 | 2.6 | 0.00 | 0.00 | 0.00 | 85 | 1007.3 |
| 20260509093211 | 45 | 214 | 2.6 | 4.3 | 0.00 | 0.00 | 0.00 | 84 | 1007.3 |
| 20260509092709 | 45 | 215 | 2.6 | 4.3 | 0.00 | 0.00 | 0.00 | 84 | 1007.3 |
| 20260509092207 | 45 | 221 | 3.5 | 4.3 | 0.00 | 0.00 | 0.00 | 83 | 1007.2 |
| 20260509091705 | 45 | 226 | 2.6 | 2.6 | 0.00 | 0.00 | 0.00 | 82 | 1007.2 |
| 20260509091200 | 45 | 212 | 2.6 | 2.6 | 0.00 | 0.00 | 0.00 | 82 | 1007.2 |
| 20260509090658 | 45 | 216 | 2.6 | 4.3 | 0.00 | 0.00 | 0.00 | 82 | 1007.5 |
| 20260509090155 | 45 | 224 | 2.6 | 4.3 | 0.00 | 0.00 | 0.00 | 81 | 1007.5 |
| 20260509085653 | 45 | 215 | 2.6 | 4.3 | 0.00 | 0.00 | 0.00 | 81 | 1007.5 |
| 20260509085149 | 45 | 216 | 0.9 | 1.7 | 0.00 | 0.00 | 0.00 | 80 | 1007.3 |
| 20260509084646 | 45 | 214 | 1.7 | 2.6 | 0.00 | 0.00 | 0.00 | 79 | 1007.5 |
| 20260509084137 | 45 | 226 | 2.6 | 2.6 | 0.00 | 0.00 | 0.00 | 77 | 1007.5 |
| 20260509083635 | 45 | 186 | 1.7 | 4.3 | 0.00 | 0.00 | 0.00 | 76 | 1007.8 |
| 20260509083131 | 44 | 210 | 3.5 | 4.3 | 0.00 | 0.00 | 0.00 | 74 | 1007.6 |
| 20260509082628 | 44 | 237 | 2.6 | 2.6 | 0.00 | 0.00 | 0.00 | 72 | 1007.6 |
| 20260509082125 | 45 | 220 | 2.6 | 2.6 | 0.00 | 0.00 | 0.00 | 72 | 1007.8 |
| 20260509081622 | 45 | 214 | 2.6 | 4.3 | 0.00 | 0.00 | 0.00 | 73 | 1007.6 |
| 20260509081119 | 45 | 230 | 2.6 | 4.3 | 0.00 | 0.00 | 0.00 | 73 | 1007.8 |
| 20260509080618 | 45 | 236 | 1.7 | 1.7 | 0.00 | 0.00 | 0.00 | 70 | 1008.0 |
| 20260509080115 | 45 | 212 | 3.5 | 4.3 | 0.00 | 0.00 | 0.00 | 70 | 1007.9 |
| 20260509075613 | 45 | 213 | 2.6 | 4.3 | 0.00 | 0.00 | 0.00 | 69 | 1007.8 |
| 20260509075110 | 45 | 206 | 2.6 | 2.6 | 0.00 | 0.00 | 0.00 | 68 | 1008.0 |
| 20260509074607 | 45 | 208 | 2.6 | 2.6 | 0.00 | 0.00 | 0.00 | 68 | 1007.9 |
| 20260509074103 | 45 | 213 | 2.6 | 4.3 | 0.00 | 0.00 | 0.00 | 66 | 1008.0 |
| 20260509073600 | 45 | 208 | 2.6 | 2.6 | 0.00 | 0.00 | 0.00 | 66 | 1008.0 |
| 20260509073056 | 45 | 205 | 1.7 | 2.6 | 0.00 | 0.00 | 0.00 | 66 | 1008.2 |
| 20260509072552 | 44 | 220 | 1.7 | 1.7 | 0.00 | 0.00 | 0.00 | 67 | 1008.0 |
| 20260509072044 | 44 | 220 | 0.9 | 1.7 | 0.00 | 0.00 | 0.00 | 68 | 1008.2 |
| 20260509071541 | 44 | 215 | 0.9 | 1.7 | 0.00 | 0.00 | 0.00 | 67 | 1008.0 |
| 20260509071039 | 44 | 247 | 0.0 | 0.9 | 0.00 | 0.00 | 0.00 | 65 | 1008.3 |
| 20260509070536 | 44 | 212 | 0.9 | 1.7 | 0.00 | 0.00 | 0.00 | 65 | 1008.3 |
| 20260509070032 | 44 | 218 | 0.9 | 0.9 | 0.00 | 0.00 | 0.00 | 66 | 1008.1 |
| 20260509065527 | 44 | 233 | 0.9 | 0.9 | 0.00 | 0.00 | 0.00 | 65 | 1008.3 |
| 20260509065024 | 44 | 248 | 0.0 | 0.0 | 0.00 | 0.00 | 0.00 | 66 | 1008.3 |
| 20260509064521 | 44 | 248 | 0.0 | 0.0 | 0.00 | 0.00 | 0.00 | 65 | 1008.5 |
| 20260509064019 | 45 | 231 | 1.7 | 1.7 | 0.00 | 0.00 | 0.00 | 63 | 1008.7 |
| 20260509063514 | 45 | 222 | 1.7 | 1.7 | 0.00 | 0.00 | 0.00 | 64 | 1008.6 |
| 20260509063012 | 45 | 213 | 1.7 | 1.7 | 0.00 | 0.00 | 0.00 | 63 | 1008.8 |
| 20260509062509 | 45 | 216 | 2.6 | 2.6 | 0.00 | 0.00 | 0.00 | 65 | 1008.7 |
| 20260509062007 | 45 | 217 | 2.6 | 2.6 | 0.00 | 0.00 | 0.00 | 63 | 1008.7 |
| 20260509061504 | 45 | 226 | 1.7 | 1.7 | 0.00 | 0.00 | 0.00 | 63 | 1008.8 |
| 20260509061001 | 45 | 219 | 2.6 | 2.6 | 0.00 | 0.00 | 0.00 | 63 | 1009.2 |
| 20260509060458 | 44 | 220 | 3.5 | 4.3 | 0.00 | 0.00 | 0.00 | 63 | 1009.2 |
| 20260509055953 | 44 | 226 | 2.6 | 2.6 | 0.00 | 0.00 | 0.00 | 64 | 1009.2 |
| 20260509055449 | 44 | 219 | 2.6 | 2.6 | 0.00 | 0.00 | 0.00 | 64 | 1009.2 |
| 20260509054946 | 44 | 220 | 2.6 | 2.6 | 0.00 | 0.00 | 0.00 | 64 | 1009.2 |
| 20260509054442 | 44 | 230 | 2.6 | 2.6 | 0.00 | 0.00 | 0.00 | 65 | 1009.4 |
| 20260509053940 | 44 | 220 | 2.6 | 2.6 | 0.00 | 0.00 | 0.00 | 65 | 1009.2 |
| 20260509053438 | 44 | 225 | 2.6 | 2.6 | 0.00 | 0.00 | 0.00 | 66 | 1009.4 |
| 20260509052935 | 44 | 215 | 4.3 | 5.2 | 0.00 | 0.00 | 0.00 | 65 | 1009.6 |
| 20260509052433 | 44 | 231 | 2.6 | 2.6 | 0.00 | 0.00 | 0.00 | 65 | 1009.6 |
| 20260509051931 | 44 | 220 | 3.5 | 4.3 | 0.00 | 0.00 | 0.00 | 64 | 1009.6 |
| 20260509051428 | 44 | 215 | 2.6 | 2.6 | 0.00 | 0.00 | 0.00 | 64 | 1009.6 |
| 20260509050925 | 43 | 226 | 2.6 | 2.6 | 0.00 | 0.00 | 0.00 | 66 | 1009.7 |
| 20260509050421 | 43 | 228 | 1.7 | 1.7 | 0.00 | 0.00 | 0.00 | 66 | 1009.9 |
| 20260509045918 | 43 | 224 | 1.7 | 1.7 | 0.00 | 0.00 | 0.00 | 65 | 1009.7 |
| 20260509045415 | 43 | 210 | 2.6 | 2.6 | 0.00 | 0.00 | 0.00 | 66 | 1009.4 |
| 20260509044912 | 43 | 212 | 2.6 | 2.6 | 0.00 | 0.00 | 0.00 | 65 | 1009.8 |
| 20260509044410 | 43 | 212 | 2.6 | 2.6 | 0.00 | 0.00 | 0.00 | 62 | 1010.0 |
| 20260509043907 | 44 | 211 | 2.6 | 2.6 | 0.00 | 0.00 | 0.00 | 63 | 1010.0 |
| 20260509043402 | 44 | 201 | 3.5 | 4.3 | 0.00 | 0.00 | 0.00 | 59 | 1010.1 |
| 20260509042858 | 45 | 224 | 1.7 | 1.7 | 0.00 | 0.00 | 0.00 | 57 | 1010.1 |
| 20260509042355 | 44 | 229 | 1.7 | 1.7 | 0.00 | 0.00 | 0.00 | 58 | 1010.0 |
| 20260509041851 | 45 | 235 | 1.7 | 1.7 | 0.00 | 0.00 | 0.00 | 57 | 1009.9 |
| 20260509041343 | 45 | 227 | 1.7 | 1.7 | 0.00 | 0.00 | 0.00 | 59 | 1009.9 |
| 20260509040841 | 44 | 233 | 1.7 | 1.7 | 0.00 | 0.00 | 0.00 | 58 | 1010.3 |
| 20260509040339 | 45 | 226 | 1.7 | 1.7 | 0.00 | 0.00 | 0.00 | 59 | 1010.1 |
| 20260509035835 | 45 | 224 | 2.6 | 2.6 | 0.00 | 0.11 | 0.11 | 56 | 1010.3 |
| 20260509035333 | 44 | 236 | 1.7 | 1.7 | 0.00 | 0.11 | 0.11 | 60 | 1010.1 |
| 20260509034828 | 45 | 230 | 2.6 | 2.6 | 0.00 | 0.11 | 0.11 | 58 | 1010.2 |
| 20260509034327 | 45 | 218 | 2.6 | 2.6 | 0.00 | 0.11 | 0.11 | 57 | 1010.3 |
| 20260509033823 | 45 | 224 | 3.5 | 4.3 | 0.00 | 0.11 | 0.11 | 54 | 1010.4 |
| 20260509033321 | 45 | 228 | 4.3 | 5.2 | 0.00 | 0.11 | 0.11 | 53 | 1010.5 |
| 20260509032817 | 44 | 224 | 2.6 | 2.6 | 0.00 | 0.11 | 0.11 | 56 | 1010.4 |
| 20260509032314 | 44 | 228 | 2.6 | 2.6 | 0.00 | 0.11 | 0.11 | 55 | 1010.3 |
| 20260509031812 | 43 | 222 | 1.7 | 1.7 | 0.00 | 0.11 | 0.11 | 58 | 1010.4 |
| 20260509031309 | 43 | 260 | 0.0 | 0.0 | 0.00 | 0.11 | 0.11 | 64 | 1010.3 |
| 20260509030807 | 43 | 260 | 0.0 | 0.0 | 0.00 | 0.11 | 0.11 | 62 | 1010.1 |
| 20260509030305 | 43 | 237 | 0.0 | 0.9 | 0.00 | 0.11 | 0.11 | 59 | 1010.2 |
| 20260509025801 | 43 | 234 | 0.9 | 0.9 | 0.00 | 0.11 | 0.11 | 63 | 1010.4 |
| 20260509025256 | 43 | 233 | 0.9 | 0.9 | 0.00 | 0.11 | 0.11 | 62 | 1010.5 |
| 20260509024752 | 44 | 235 | 0.9 | 0.9 | 0.00 | 0.11 | 0.11 | 63 | 1010.4 |
| 20260509024248 | 43 | 236 | 1.7 | 1.7 | 0.00 | 0.11 | 0.11 | 60 | 1010.5 |
| 20260509023746 | 43 | 239 | 0.9 | 0.9 | 0.00 | 0.11 | 0.11 | 63 | 1010.4 |
| 20260509023243 | 43 | 256 | 0.0 | 0.0 | 0.00 | 0.11 | 0.11 | 64 | 1010.5 |
| 20260509022739 | 43 | 248 | 0.0 | 0.0 | 0.00 | 0.11 | 0.11 | 62 | 1010.4 |
| 20260509022237 | 43 | 247 | 0.0 | 0.0 | 0.00 | 0.11 | 0.11 | 65 | 1010.4 |
| 20260509021733 | 42 | 242 | 0.0 | 0.0 | 0.00 | 0.11 | 0.11 | 65 | 1010.2 |
| 20260509021231 | 42 | 247 | 0.0 | 0.0 | 0.00 | 0.11 | 0.11 | 66 | 1010.3 |
| 20260509020729 | 41 | 246 | 0.0 | 0.0 | 0.00 | 0.11 | 0.11 | 67 | 1010.3 |
| 20260509020226 | 41 | 247 | 0.0 | 0.0 | 0.00 | 0.11 | 0.11 | 75 | 1010.4 |
| 20260509015724 | 41 | 250 | 0.0 | 0.0 | 0.00 | 0.11 | 0.11 | 70 | 1010.4 |
| 20260509015222 | 42 | 257 | 0.0 | 0.0 | 0.00 | 0.11 | 0.11 | 70 | 1010.2 |
| 20260509014718 | 41 | 248 | 0.0 | 0.0 | 0.00 | 0.11 | 0.11 | 68 | 1010.5 |
| 20260509014215 | 41 | 241 | 0.0 | 0.9 | 0.00 | 0.11 | 0.11 | 74 | 1010.3 |
| 20260509013712 | 42 | 254 | 0.0 | 0.0 | 0.00 | 0.11 | 0.11 | 74 | 1010.3 |
| 20260509013207 | 42 | 255 | 0.9 | 0.9 | 0.00 | 0.11 | 0.11 | 73 | 1010.3 |
| 20260509012704 | 42 | 260 | 0.9 | 0.9 | 0.00 | 0.11 | 0.11 | 72 | 1010.2 |
| 20260509012201 | 42 | 264 | 0.9 | 0.9 | 0.00 | 0.11 | 0.11 | 72 | 1010.3 |
| 20260509011658 | 43 | 258 | 0.0 | 0.9 | 0.00 | 0.11 | 0.11 | 73 | 1010.3 |
| 20260509011155 | 44 | 265 | 0.9 | 0.9 | 0.00 | 0.11 | 0.11 | 67 | 1010.1 |
| 20260509010653 | 43 | 268 | 0.9 | 0.9 | 0.00 | 0.11 | 0.11 | 68 | 1009.9 |
| 20260509010149 | 44 | 261 | 0.9 | 0.9 | 0.00 | 0.11 | 0.11 | 67 | 1010.3 |
| 20260509005647 | 43 | 264 | 0.9 | 0.9 | 0.00 | 0.11 | 0.11 | 65 | 1009.9 |
| 20260509005144 | 43 | 258 | 0.9 | 0.9 | 0.00 | 0.11 | 0.11 | 73 | 1010.2 |
| 20260509004639 | 44 | 270 | 0.0 | 0.9 | 0.00 | 0.11 | 0.11 | 70 | 1009.7 |
| 20260509004136 | 44 | 262 | 0.9 | 0.9 | 0.00 | 0.11 | 0.11 | 74 | 1009.6 |
| 20260509003635 | 45 | 260 | 0.9 | 0.9 | 0.00 | 0.11 | 0.11 | 67 | 1009.7 |
| 20260509003132 | 45 | 266 | 0.0 | 0.9 | 0.00 | 0.11 | 0.11 | 66 | 1009.7 |
| 20260509002629 | 45 | 253 | 0.0 | 0.9 | 0.00 | 0.11 | 0.11 | 64 | 1009.8 |
| 20260509002126 | 45 | 252 | 0.0 | 0.9 | 0.00 | 0.11 | 0.11 | 65 | 1009.6 |
| 20260509001624 | 46 | 253 | 0.9 | 0.9 | 0.00 | 0.11 | 0.11 | 69 | 1009.7 |
| 20260509001119 | 48 | 254 | 0.0 | 0.9 | 0.00 | 0.11 | 0.11 | 62 | 1009.6 |
| 20260509000618 | 49 | 261 | 0.0 | 0.0 | 0.00 | 0.11 | 0.11 | 48 | 1009.7 |
| 20260509000114 | 50 | 238 | 0.9 | 0.9 | 0.00 | 0.11 | 0.11 | 49 | 1009.7 |
| 20260508235612 | 50 | 258 | 0.0 | 0.9 | 0.00 | 0.11 | 0.11 | 45 | 1009.4 |
| 20260508235108 | 51 | 248 | 0.9 | 0.9 | 0.00 | 0.11 | 0.11 | 44 | 1009.8 |
| 20260508234606 | 51 | 282 | 1.7 | 1.7 | 0.00 | 0.11 | 0.11 | 45 | 1009.8 |
| 20260508234102 | 52 | 249 | 0.9 | 1.7 | 0.00 | 0.11 | 0.11 | 43 | 1009.6 |
| 20260508233601 | 52 | 235 | 1.7 | 1.7 | 0.00 | 0.11 | 0.11 | 41 | 1009.7 |
| 20260508233059 | 53 | 261 | 2.6 | 2.6 | 0.00 | 0.11 | 0.11 | 41 | 1009.6 |
| 20260508232555 | 53 | 231 | 0.9 | 1.7 | 0.00 | 0.11 | 0.11 | 45 | 1009.8 |
| 20260508232052 | 54 | 276 | 2.6 | 5.2 | 0.00 | 0.11 | 0.11 | 37 | 1009.6 |
| 20260508231550 | 54 | 274 | 1.7 | 1.7 | 0.00 | 0.11 | 0.11 | 39 | 1009.4 |
| 20260508231047 | 54 | 240 | 2.6 | 2.6 | 0.00 | 0.11 | 0.11 | 40 | 1009.3 |
| 20260508230543 | 54 | 253 | 2.6 | 2.6 | 0.00 | 0.11 | 0.11 | 38 | 1009.4 |
| 20260508230040 | 54 | 250 | 0.9 | 1.7 | 0.00 | 0.11 | 0.11 | 39 | 1009.4 |
| 20260508225537 | 54 | 265 | 4.3 | 6.1 | 0.00 | 0.11 | 0.11 | 35 | 1009.4 |
| 20260508225034 | 55 | 234 | 1.7 | 2.6 | 0.00 | 0.11 | 0.11 | 38 | 1009.4 |
| 20260508224532 | 55 | 270 | 2.6 | 2.6 | 0.00 | 0.11 | 0.11 | 35 | 1009.4 |
| 20260508224029 | 54 | 244 | 3.5 | 4.3 | 0.00 | 0.11 | 0.11 | 33 | 1009.3 |
| 20260508223527 | 55 | 254 | 3.5 | 4.3 | 0.00 | 0.11 | 0.11 | 34 | 1009.7 |
| 20260508223024 | 55 | 281 | 1.7 | 1.7 | 0.00 | 0.11 | 0.11 | 36 | 1009.3 |
| 20260508222521 | 55 | 244 | 4.3 | 5.2 | 0.00 | 0.11 | 0.11 | 34 | 1009.7 |
| 20260508222018 | 55 | 281 | 2.6 | 4.3 | 0.00 | 0.11 | 0.11 | 35 | 1009.3 |
| 20260508221514 | 55 | 231 | 1.7 | 1.7 | 0.00 | 0.11 | 0.11 | 32 | 1009.1 |
| 20260508221010 | 55 | 255 | 3.5 | 4.3 | 0.00 | 0.11 | 0.11 | 36 | 1009.4 |
| 20260508220507 | 56 | 245 | 2.6 | 4.3 | 0.00 | 0.11 | 0.11 | 37 | 1009.4 |
| 20260508220003 | 55 | 260 | 3.5 | 4.3 | 0.00 | 0.11 | 0.11 | 33 | 1009.3 |
| 20260508215500 | 55 | 234 | 3.5 | 4.3 | 0.00 | 0.11 | 0.11 | 35 | 1009.3 |
| 20260508214956 | 55 | 336 | 3.5 | 5.2 | 0.00 | 0.11 | 0.11 | 32 | 1009.2 |
| 20260508214454 | 55 | 302 | 1.7 | 1.7 | 0.00 | 0.11 | 0.11 | 36 | 1009.2 |
| 20260508213950 | 54 | 276 | 2.6 | 2.6 | 0.00 | 0.11 | 0.11 | 35 | 1009.4 |
| 20260508213448 | 55 | 325 | 4.3 | 5.2 | 0.00 | 0.11 | 0.11 | 36 | 1009.3 |
| 20260508212943 | 55 | 270 | 1.7 | 1.7 | 0.00 | 0.11 | 0.11 | 37 | 1009.1 |
| 20260508212440 | 55 | 244 | 3.5 | 5.2 | 0.00 | 0.11 | 0.11 | 36 | 1009.4 |
| 20260508211936 | 55 | 229 | 4.3 | 5.2 | 0.00 | 0.11 | 0.11 | 36 | 1009.4 |
| 20260508211431 | 55 | 285 | 2.6 | 2.6 | 0.00 | 0.11 | 0.11 | 36 | 1009.4 |
| 20260508210929 | 55 | 261 | 2.6 | 2.6 | 0.00 | 0.11 | 0.11 | 37 | 1009.6 |
| 20260508210426 | 55 | 212 | 3.5 | 5.2 | 0.00 | 0.11 | 0.11 | 37 | 1009.4 |
| 20260508205922 | 55 | 356 | 1.7 | 2.6 | 0.00 | 0.11 | 0.11 | 34 | 1009.6 |
| 20260508205419 | 55 | 278 | 0.9 | 0.9 | 0.00 | 0.11 | 0.11 | 33 | 1009.4 |
| 20260508204915 | 55 | 274 | 1.7 | 1.7 | 0.00 | 0.11 | 0.11 | 35 | 1009.4 |
| 20260508204413 | 55 | 300 | 3.5 | 5.2 | 0.00 | 0.11 | 0.11 | 37 | 1009.4 |
| 20260508203908 | 55 | 266 | 3.5 | 4.3 | 0.00 | 0.11 | 0.11 | 37 | 1009.4 |
| 20260508203405 | 57 | 304 | 3.5 | 5.2 | 0.00 | 0.11 | 0.11 | 34 | 1009.6 |
| 20260508202900 | 56 | 260 | 2.6 | 2.6 | 0.00 | 0.11 | 0.11 | 43 | 1009.7 |
| 20260508202358 | 56 | 242 | 1.7 | 1.7 | 0.00 | 0.11 | 0.11 | 40 | 1009.7 |
| 20260508201855 | 54 | 274 | 1.7 | 1.7 | 0.00 | 0.11 | 0.11 | 42 | 1009.9 |
| 20260508201351 | 55 | 254 | 2.6 | 2.6 | 0.00 | 0.11 | 0.11 | 47 | 1009.8 |
| 20260508200848 | 55 | 262 | 2.6 | 4.3 | 0.00 | 0.11 | 0.11 | 42 | 1009.9 |
| 20260508200345 | 54 | 244 | 0.9 | 0.9 | 0.00 | 0.11 | 0.11 | 45 | 1009.9 |
| 20260508195840 | 54 | 207 | 0.9 | 1.7 | 0.00 | 0.11 | 0.11 | 46 | 1010.2 |
| 20260508195337 | 53 | 8 | 4.3 | 5.2 | 0.00 | 0.11 | 0.11 | 44 | 1010.3 |
| 20260508194834 | 53 | 249 | 2.6 | 2.6 | 0.00 | 0.11 | 0.11 | 48 | 1010.2 |
| 20260508194331 | 54 | 286 | 5.2 | 6.1 | 0.00 | 0.11 | 0.11 | 46 | 1010.1 |
| 20260508193828 | 55 | 331 | 0.9 | 0.9 | 0.00 | 0.11 | 0.11 | 46 | 1010.3 |
| 20260508193324 | 55 | 279 | 1.7 | 1.7 | 0.00 | 0.11 | 0.11 | 48 | 1010.4 |
| 20260508192820 | 53 | 283 | 0.9 | 1.7 | 0.00 | 0.11 | 0.11 | 46 | 1010.6 |
| 20260508192317 | 53 | 282 | 2.6 | 4.3 | 0.00 | 0.11 | 0.11 | 48 | 1010.4 |
| 20260508191814 | 53 | 275 | 2.6 | 2.6 | 0.00 | 0.11 | 0.11 | 53 | 1010.6 |
| 20260508191312 | 52 | 238 | 1.7 | 2.6 | 0.00 | 0.11 | 0.11 | 51 | 1010.6 |
| 20260508190804 | 53 | 276 | 2.6 | 2.6 | 0.00 | 0.11 | 0.11 | 51 | 1010.5 |
| 20260508190259 | 53 | 234 | 3.5 | 4.3 | 0.00 | 0.11 | 0.11 | 53 | 1010.6 |
| 20260508185756 | 53 | 278 | 2.6 | 4.3 | 0.00 | 0.11 | 0.11 | 53 | 1011.0 |
| 20260508185254 | 53 | 249 | 2.6 | 2.6 | 0.00 | 0.11 | 0.11 | 53 | 1010.8 |
| 20260508184750 | 53 | 245 | 2.6 | 2.6 | 0.00 | 0.11 | 0.11 | 56 | 1010.7 |
| 20260508184248 | 53 | 305 | 4.3 | 6.1 | 0.00 | 0.11 | 0.11 | 56 | 1010.9 |
| 20260508183745 | 53 | 268 | 5.2 | 6.1 | 0.00 | 0.11 | 0.11 | 54 | 1010.9 |
| 20260508183241 | 53 | 256 | 1.7 | 2.6 | 0.00 | 0.11 | 0.11 | 56 | 1010.9 |
| 20260508182737 | 51 | 237 | 0.0 | 0.0 | 0.00 | 0.11 | 0.11 | 53 | 1010.9 |
| 20260508182234 | 50 | 219 | 2.6 | 2.6 | 0.00 | 0.11 | 0.11 | 58 | 1010.9 |
| 20260508181730 | 50 | 211 | 0.9 | 1.7 | 0.00 | 0.11 | 0.11 | 54 | 1010.8 |
| 20260508181227 | 51 | 305 | 4.3 | 4.3 | 0.00 | 0.11 | 0.11 | 52 | 1010.7 |
| 20260508180723 | 51 | 12 | 1.7 | 1.7 | 0.00 | 0.11 | 0.11 | 56 | 1011.1 |
| 20260508180220 | 51 | 353 | 4.3 | 5.2 | 0.00 | 0.11 | 0.11 | 55 | 1011.0 |
| 20260508175717 | 51 | 271 | 2.6 | 2.6 | 0.00 | 0.11 | 0.11 | 53 | 1011.0 |
| 20260508175214 | 51 | 292 | 0.9 | 0.9 | 0.00 | 0.11 | 0.11 | 53 | 1010.8 |
| 20260508174712 | 50 | 327 | 3.5 | 5.2 | 0.00 | 0.11 | 0.11 | 62 | 1011.0 |
| 20260508174208 | 50 | 254 | 1.7 | 1.7 | 0.00 | 0.11 | 0.11 | 56 | 1011.1 |